Time;durP1;ratioP1;P1;durP2;ratioP2;P2;SDS_P1;SDS_P2;PMS_P1;PMS_P2;Temp;Humidity;BMP_temperature;BMP_pressure;BME280_temperature;BME280_humidity;BME280_pressure;Samples;Min_cycle;Max_cycle;Signal;HPM_P1;HPM_P2
2021/12/07 00:01:45;;;;;;;9.07;4.40;;;;;;;;;;5052123;28;20045;-72
2021/12/07 00:04:11;;;;;;;7.80;3.93;;;;;;;;;;5052247;28;20496;-73
2021/12/07 00:06:37;;;;;;;6.67;3.90;;;;;;;;;;5052273;28;20466;-72
2021/12/07 00:09:05;;;;;;;6.33;3.47;;;;;;;;;;5052289;28;20021;-72
2021/12/07 00:11:31;;;;;;;7.07;3.80;;;;;;;;;;5052403;28;20021;-72
2021/12/07 00:13:58;;;;;;;7.43;3.83;;;;;;;;;;5052876;28;20021;-72
2021/12/07 00:16:25;;;;;;;6.87;3.00;;;;;;;;;;5052397;28;20129;-73
2021/12/07 00:18:51;;;;;;;6.93;3.77;;;;;;;;;;5052226;28;20028;-72
2021/12/07 00:21:18;;;;;;;6.80;3.10;;;;;;;;;;5052139;28;20120;-72
2021/12/07 00:23:45;;;;;;;6.90;3.83;;;;;;;;;;5052219;28;20408;-72
2021/12/07 00:26:12;;;;;;;7.80;3.40;;;;;;;;;;5050997;28;20021;-72
2021/12/07 00:28:38;;;;;;;8.53;4.00;;;;;;;;;;5055919;28;20028;-72
2021/12/07 00:31:29;;;;;;;7.90;4.27;;;;;;;;;;5055712;28;20078;-72
2021/12/07 00:34:08;;;;;;;9.37;4.40;;;;;;;;;;5055668;28;20072;-72
2021/12/07 00:36:35;;;;;;;11.37;5.07;;;;;;;;;;5056120;28;20029;-72
2021/12/07 00:39:03;;;;;;;11.67;4.90;;;;;;;;;;5056048;28;20100;-72
2021/12/07 00:41:29;;;;;;;8.47;4.27;;;;;;;;;;5055816;28;20029;-72
2021/12/07 00:43:56;;;;;;;8.50;4.50;;;;;;;;;;5056007;28;20037;-72
2021/12/07 00:46:23;;;;;;;9.07;4.63;;;;;;;;;;5056038;28;20082;-72
2021/12/07 00:48:50;;;;;;;11.00;4.57;;;;;;;;;;5054671;28;20051;-72
2021/12/07 00:51:16;;;;;;;10.23;5.20;;;;;;;;;;5055857;28;20028;-72
2021/12/07 00:53:42;;;;;;;7.63;4.50;;;;;;;;;;5054671;28;20139;-73
2021/12/07 00:56:08;;;;;;;10.10;5.23;;;;;;;;;;5056093;28;20087;-72
2021/12/07 00:58:34;;;;;;;9.40;4.57;;;;;;;;;;5055997;28;20025;-72
2021/12/07 01:01:05;;;;;;;11.23;4.90;;;;;;;;;;5054246;28;20379;-72
2021/12/07 01:03:31;;;;;;;13.93;4.93;;;;;;;;;;5055452;28;20116;-72
2021/12/07 01:07:03;;;;;;;9.53;4.30;;;;;;;;;;5055357;28;20032;-72
2021/12/07 01:25:17;;;;;;;11.37;5.30;;;;;;;;;;5055830;28;20094;-72
2021/12/07 01:27:46;;;;;;;11.60;5.50;;;;;;;;;;5055293;28;20157;-72
2021/12/07 01:30:19;;;;;;;9.90;5.60;;;;;;;;;;5053932;28;20036;-73
2021/12/07 01:35:49;;;;;;;13.73;5.97;;;;;;;;;;5055388;28;19904;-73
2021/12/07 01:38:39;;;;;;;10.80;5.17;;;;;;;;;;5054496;28;20021;-72
2021/12/07 01:59:55;;;;;;;10.57;5.67;;;;;;;;;;5051853;28;20040;-72
2021/12/07 02:02:22;;;;;;;13.83;6.90;;;;;;;;;;5051766;28;20056;-73
2021/12/07 02:04:48;;;;;;;14.90;7.77;;;;;;;;;;5051780;28;20424;-72
2021/12/07 02:07:15;;;;;;;19.80;9.13;;;;;;;;;;5052874;28;20029;-73
2021/12/07 02:09:45;;;;;;;18.77;8.73;;;;;;;;;;5054230;28;20043;-72
2021/12/07 02:12:12;;;;;;;18.90;8.77;;;;;;;;;;5054234;28;20025;-72
2021/12/07 02:14:38;;;;;;;17.70;8.20;;;;;;;;;;5054157;28;20025;-72
2021/12/07 02:17:09;;;;;;;15.97;9.13;;;;;;;;;;5054495;28;20029;-72
2021/12/07 02:19:35;;;;;;;17.50;9.03;;;;;;;;;;5053118;28;20029;-73
2021/12/07 02:22:01;;;;;;;15.37;8.57;;;;;;;;;;5053840;28;20032;-73
2021/12/07 02:24:28;;;;;;;14.37;8.43;;;;;;;;;;5053182;28;20052;-72
2021/12/07 02:26:54;;;;;;;14.30;8.40;;;;;;;;;;5054228;28;20029;-72
2021/12/07 02:29:21;;;;;;;15.87;8.23;;;;;;;;;;5054303;28;20040;-72
2021/12/07 02:31:48;;;;;;;14.87;7.43;;;;;;;;;;5054335;28;20094;-72
2021/12/07 02:34:14;;;;;;;13.67;8.03;;;;;;;;;;5054054;28;20025;-72
2021/12/07 02:36:41;;;;;;;13.13;6.93;;;;;;;;;;5053536;28;20393;-72
2021/12/07 02:39:08;;;;;;;12.37;6.97;;;;;;;;;;5053650;28;20078;-72
2021/12/07 02:41:34;;;;;;;12.40;7.40;;;;;;;;;;5053793;28;20359;-72
2021/12/07 02:44:01;;;;;;;15.23;7.23;;;;;;;;;;5053520;28;20036;-72
2021/12/07 02:46:27;;;;;;;13.17;7.20;;;;;;;;;;5052397;28;20441;-72
2021/12/07 02:48:53;;;;;;;14.70;7.33;;;;;;;;;;5053820;28;20493;-73
2021/12/07 02:51:19;;;;;;;14.40;7.57;;;;;;;;;;5053363;28;20098;-72
2021/12/07 02:53:47;;;;;;;11.87;6.80;;;;;;;;;;5053841;28;20032;-72
2021/12/07 02:56:13;;;;;;;12.23;6.93;;;;;;;;;;5053639;28;20045;-72
2021/12/07 02:58:44;;;;;;;13.00;7.10;;;;;;;;;;5054091;28;20029;-71
2021/12/07 03:01:16;;;;;;;14.13;6.47;;;;;;;;;;5053526;28;20053;-72
2021/12/07 03:03:59;;;;;;;9.95;6.35;;;;;;;;;;5053646;28;20080;-72
2021/12/07 03:06:39;;;;;;;13.73;6.68;;;;;;;;;;5053426;28;20057;-72
2021/12/07 03:26:07;;;;;;;14.60;7.63;;;;;;;;;;5053553;28;20393;-73
2021/12/07 03:28:34;;;;;;;12.67;6.53;;;;;;;;;;5053250;28;20082;-73
2021/12/07 03:31:01;;;;;;;10.77;6.33;;;;;;;;;;5052868;28;20044;-73
2021/12/07 03:33:27;;;;;;;10.97;5.50;;;;;;;;;;5053072;28;20025;-73
2021/12/07 03:35:54;;;;;;;11.73;5.40;;;;;;;;;;5053060;28;20028;-73
2021/12/07 03:38:20;;;;;;;10.30;5.57;;;;;;;;;;5051715;28;20374;-73
2021/12/07 03:40:46;;;;;;;11.57;4.90;;;;;;;;;;5052726;28;20070;-72
2021/12/07 03:43:13;;;;;;;11.57;5.07;;;;;;;;;;5052904;28;20041;-73
2021/12/07 03:45:39;;;;;;;10.77;4.30;;;;;;;;;;5052799;28;20025;-73
2021/12/07 03:48:06;;;;;;;11.63;4.83;;;;;;;;;;5053045;28;20075;-73
2021/12/07 03:50:33;;;;;;;16.33;4.70;;;;;;;;;;5052707;28;20032;-73
2021/12/07 03:52:59;;;;;;;7.57;4.50;;;;;;;;;;5052804;28;20032;-73
2021/12/07 03:55:25;;;;;;;13.33;5.13;;;;;;;;;;5051451;28;20128;-73
2021/12/07 03:57:51;;;;;;;10.23;5.47;;;;;;;;;;5052692;28;20497;-73
2021/12/07 04:00:19;;;;;;;10.03;5.03;;;;;;;;;;5052755;28;20032;-73
2021/12/07 04:02:46;;;;;;;10.07;5.53;;;;;;;;;;5054737;28;20124;-74
2021/12/07 04:05:15;;;;;;;13.27;7.00;;;;;;;;;;5056947;28;20036;-73
2021/12/07 04:07:42;;;;;;;12.00;6.10;;;;;;;;;;5056462;28;20100;-73
2021/12/07 04:10:09;;;;;;;11.70;6.27;;;;;;;;;;5056520;28;20040;-73
2021/12/07 04:12:35;;;;;;;10.50;5.57;;;;;;;;;;5057041;28;20504;-73
2021/12/07 04:15:01;;;;;;;15.23;6.63;;;;;;;;;;5056887;28;20470;-73
2021/12/07 04:17:27;;;;;;;11.00;5.97;;;;;;;;;;5056692;28;20528;-74
2021/12/07 04:19:53;;;;;;;15.90;6.57;;;;;;;;;;5056470;28;20385;-73
2021/12/07 04:22:19;;;;;;;9.93;5.80;;;;;;;;;;5056631;28;20493;-73
2021/12/07 04:24:45;;;;;;;13.00;6.30;;;;;;;;;;5056637;28;20036;-73
2021/12/07 04:27:11;;;;;;;10.87;5.60;;;;;;;;;;5056267;28;20035;-73
2021/12/07 04:29:37;;;;;;;11.43;5.87;;;;;;;;;;5056261;28;20025;-73
2021/12/07 04:32:04;;;;;;;8.67;4.87;;;;;;;;;;5056235;28;20025;-73
2021/12/07 04:34:30;;;;;;;11.13;6.13;;;;;;;;;;5056335;28;20484;-73
2021/12/07 04:36:56;;;;;;;11.60;5.90;;;;;;;;;;5056364;28;20021;-73
2021/12/07 04:39:22;;;;;;;10.63;5.40;;;;;;;;;;5056210;28;20112;-73
2021/12/07 04:41:49;;;;;;;10.97;6.30;;;;;;;;;;5056277;28;20029;-73
2021/12/07 04:44:15;;;;;;;11.17;5.90;;;;;;;;;;5056033;28;20512;-73
2021/12/07 04:57:45;;;;;;;8.80;5.70;;;;;;;;;;5056106;28;20028;-73
2021/12/07 05:00:19;;;;;;;10.70;5.57;;;;;;;;;;5055735;28;20082;-74
2021/12/07 05:02:51;;;;;;;12.93;5.57;;;;;;;;;;5055667;28;20079;-73
2021/12/07 05:05:18;;;;;;;11.07;5.83;;;;;;;;;;5055797;28;20024;-73
2021/12/07 05:07:50;;;;;;;9.93;5.47;;;;;;;;;;5055659;28;20021;-73
2021/12/07 05:13:22;;;;;;;11.43;6.20;;;;;;;;;;5055931;28;20021;-73
2021/12/07 05:40:07;;;;;;;16.00;7.27;;;;;;;;;;5055155;28;20123;-73
2021/12/07 05:42:35;;;;;;;11.40;6.50;;;;;;;;;;5055055;28;20497;-75
2021/12/07 05:45:01;;;;;;;9.97;5.57;;;;;;;;;;5055124;28;20408;-73
2021/12/07 05:47:27;;;;;;;11.50;6.37;;;;;;;;;;5055209;28;20017;-74
2021/12/07 05:49:53;;;;;;;15.10;6.43;;;;;;;;;;5055168;28;20024;-73
2021/12/07 05:52:19;;;;;;;10.53;5.90;;;;;;;;;;5055241;28;20052;-73
2021/12/07 05:54:45;;;;;;;11.23;6.23;;;;;;;;;;5055084;28;20021;-73
2021/12/07 05:57:11;;;;;;;13.00;6.13;;;;;;;;;;5055240;28;20120;-73
2021/12/07 05:59:37;;;;;;;10.67;5.37;;;;;;;;;;5054928;28;20029;-73
2021/12/07 06:02:03;;;;;;;10.20;5.53;;;;;;;;;;5054561;28;20055;-73
2021/12/07 06:04:30;;;;;;;9.53;6.40;;;;;;;;;;5055038;28;20056;-73
2021/12/07 06:06:57;;;;;;;11.00;5.80;;;;;;;;;;5054734;28;20013;-73
2021/12/07 06:09:23;;;;;;;13.80;6.33;;;;;;;;;;5054685;28;20029;-74
2021/12/07 06:11:50;;;;;;;10.50;6.00;;;;;;;;;;5054462;28;20108;-73
2021/12/07 06:14:19;;;;;;;11.83;6.17;;;;;;;;;;5054297;28;20064;-73
2021/12/07 06:16:46;;;;;;;11.60;5.70;;;;;;;;;;5054490;28;20118;-73
2021/12/07 06:19:12;;;;;;;9.87;5.70;;;;;;;;;;5054537;28;20527;-73
2021/12/07 06:21:38;;;;;;;11.10;6.13;;;;;;;;;;5054208;28;20044;-73
2021/12/07 06:24:04;;;;;;;13.63;5.83;;;;;;;;;;5054345;28;20036;-73
2021/12/07 06:26:30;;;;;;;9.17;5.53;;;;;;;;;;5053934;28;20021;-73
2021/12/07 06:28:56;;;;;;;11.10;5.17;;;;;;;;;;5054355;28;20123;-73
2021/12/07 06:31:22;;;;;;;9.00;4.97;;;;;;;;;;5054045;28;20067;-73
2021/12/07 06:33:48;;;;;;;6.57;4.03;;;;;;;;;;5053869;28;20025;-74
2021/12/07 06:36:15;;;;;;;10.13;4.23;;;;;;;;;;5053609;28;20092;-73
2021/12/07 06:38:41;;;;;;;11.43;4.70;;;;;;;;;;5054184;28;20033;-73
2021/12/07 06:41:07;;;;;;;14.30;5.60;;;;;;;;;;5053834;28;20021;-73
2021/12/07 06:43:34;;;;;;;11.67;5.60;;;;;;;;;;5052313;28;20397;-73
2021/12/07 06:46:00;;;;;;;13.73;5.37;;;;;;;;;;5053733;28;20048;-72
2021/12/07 06:48:26;;;;;;;10.43;5.47;;;;;;;;;;5053909;28;20059;-73
2021/12/07 06:50:52;;;;;;;11.87;4.77;;;;;;;;;;5053574;28;20414;-72
2021/12/07 06:53:18;;;;;;;8.00;4.10;;;;;;;;;;5053377;28;20029;-72
2021/12/07 06:55:44;;;;;;;9.33;4.13;;;;;;;;;;5053338;28;20337;-73
2021/12/07 06:58:10;;;;;;;8.03;4.20;;;;;;;;;;5053773;28;20104;-73
2021/12/07 07:00:37;;;;;;;8.27;4.07;;;;;;;;;;5053199;28;20023;-73
2021/12/07 07:03:03;;;;;;;8.67;4.07;;;;;;;;;;5053603;28;20049;-73
2021/12/07 07:05:30;;;;;;;8.13;3.77;;;;;;;;;;5053444;28;20029;-73
2021/12/07 07:07:56;;;;;;;11.43;4.63;;;;;;;;;;5053199;28;20105;-73
2021/12/07 07:10:22;;;;;;;8.97;4.03;;;;;;;;;;5053135;28;20021;-73
2021/12/07 07:12:49;;;;;;;8.07;4.30;;;;;;;;;;5053468;28;20032;-73
2021/12/07 07:15:16;;;;;;;7.97;4.30;;;;;;;;;;5053151;28;20043;-73
2021/12/07 07:17:42;;;;;;;8.97;3.70;;;;;;;;;;5052957;28;20039;-73
2021/12/07 07:20:10;;;;;;;10.00;4.07;;;;;;;;;;5053343;28;20021;-74
2021/12/07 07:22:37;;;;;;;10.60;4.30;;;;;;;;;;5051901;28;20132;-73
2021/12/07 07:25:04;;;;;;;13.10;5.17;;;;;;;;;;5053108;28;20108;-73
2021/12/07 07:27:30;;;;;;;10.93;5.20;;;;;;;;;;5052907;28;20025;-74
2021/12/07 07:29:56;;;;;;;16.23;6.50;;;;;;;;;;5052611;28;20040;-73
2021/12/07 07:32:22;;;;;;;8.67;4.83;;;;;;;;;;5052690;28;20037;-73
2021/12/07 07:34:48;;;;;;;15.33;6.20;;;;;;;;;;5052723;28;20025;-73
2021/12/07 07:37:14;;;;;;;12.90;6.00;;;;;;;;;;5051888;28;20108;-73
2021/12/07 07:39:41;;;;;;;15.37;5.97;;;;;;;;;;5052754;28;20057;-73
2021/12/07 07:42:07;;;;;;;15.33;7.57;;;;;;;;;;5051580;28;20413;-74
2021/12/07 07:44:33;;;;;;;21.30;10.87;;;;;;;;;;5052470;28;20488;-73
2021/12/07 07:47:00;;;;;;;18.53;9.47;;;;;;;;;;5052583;28;20461;-73
2021/12/07 07:49:26;;;;;;;21.33;10.23;;;;;;;;;;5052540;28;20061;-73
2021/12/07 07:51:52;;;;;;;20.20;10.93;;;;;;;;;;5052505;28;20083;-73
2021/12/07 07:54:18;;;;;;;19.23;10.30;;;;;;;;;;5052447;28;20444;-73
2021/12/07 07:56:44;;;;;;;21.80;9.27;;;;;;;;;;5052514;28;20451;-73
2021/12/07 07:59:10;;;;;;;19.47;9.33;;;;;;;;;;5052770;28;20056;-74
2021/12/07 08:01:36;;;;;;;21.80;8.27;;;;;;;;;;5052122;28;20053;-73
2021/12/07 08:04:03;;;;;;;20.93;7.80;;;;;;;;;;5052513;28;20477;-73
2021/12/07 08:06:29;;;;;;;20.57;9.83;;;;;;;;;;5052295;28;20466;-73
2021/12/07 08:08:56;;;;;;;19.00;8.43;;;;;;;;;;5052846;28;20025;-73
2021/12/07 08:11:22;;;;;;;25.37;9.50;;;;;;;;;;5052528;28;20461;-73
2021/12/07 08:13:48;;;;;;;23.13;9.40;;;;;;;;;;5052503;28;20029;-73
2021/12/07 08:16:17;;;;;;;22.67;10.10;;;;;;;;;;5050941;28;20017;-74
2021/12/07 08:18:44;;;;;;;36.23;11.47;;;;;;;;;;5052023;28;20036;-73
2021/12/07 08:21:10;;;;;;;21.10;11.37;;;;;;;;;;5052356;28;20075;-73
2021/12/07 08:23:36;;;;;;;19.73;10.40;;;;;;;;;;5052505;28;20037;-73
2021/12/07 08:26:03;;;;;;;18.60;8.77;;;;;;;;;;5052106;28;20107;-72
2021/12/07 08:28:29;;;;;;;15.70;6.17;;;;;;;;;;5052617;28;20032;-73
2021/12/07 08:30:55;;;;;;;20.13;8.20;;;;;;;;;;5051965;28;20116;-72
2021/12/07 08:33:21;;;;;;;22.30;9.23;;;;;;;;;;5052445;28;20044;-73
2021/12/07 08:35:48;;;;;;;21.37;9.33;;;;;;;;;;5050575;28;20032;-72
2021/12/07 08:38:14;;;;;;;34.77;10.40;;;;;;;;;;5052015;28;20429;-72
2021/12/07 08:40:42;;;;;;;41.53;12.03;;;;;;;;;;5051978;28;20033;-72
2021/12/07 08:43:11;;;;;;;45.73;14.97;;;;;;;;;;5050768;28;20041;-73
2021/12/07 08:45:38;;;;;;;42.77;13.27;;;;;;;;;;5050126;28;20021;-72
2021/12/07 08:48:04;;;;;;;32.17;11.97;;;;;;;;;;5053103;28;20060;-74
2021/12/07 08:50:30;;;;;;;45.97;13.70;;;;;;;;;;5054617;28;20025;-72
2021/12/07 08:53:03;;;;;;;37.10;13.30;;;;;;;;;;5055006;28;20039;-73
2021/12/07 09:01:00;;;;;;;49.90;15.13;;;;;;;;;;5061547;28;20087;-71
2021/12/07 09:03:26;;;;;;;48.60;15.33;;;;;;;;;;5056336;28;20068;-71
2021/12/07 09:05:52;;;;;;;50.83;15.77;;;;;;;;;;5055184;28;20021;-71
2021/12/07 09:08:18;;;;;;;57.83;16.17;;;;;;;;;;5054560;28;20036;-71
2021/12/07 09:10:45;;;;;;;44.93;15.63;;;;;;;;;;5054734;28;20473;-71
2021/12/07 09:13:11;;;;;;;54.47;15.47;;;;;;;;;;5054629;28;20036;-72
2021/12/07 09:15:38;;;;;;;51.63;16.20;;;;;;;;;;5073472;28;20074;-71
2021/12/07 09:18:04;;;;;;;43.50;15.30;;;;;;;;;;5073428;28;20028;-73
2021/12/07 09:20:30;;;;;;;39.30;14.60;;;;;;;;;;5074931;28;20020;-72
2021/12/07 09:22:57;;;;;;;37.53;14.00;;;;;;;;;;5061728;28;20405;-72
2021/12/07 09:25:23;;;;;;;38.57;13.20;;;;;;;;;;5054850;28;20028;-72
2021/12/07 09:27:50;;;;;;;43.77;13.07;;;;;;;;;;5054517;28;20603;-72
2021/12/07 09:30:17;;;;;;;33.90;11.97;;;;;;;;;;5054909;28;20116;-72
2021/12/07 09:32:43;;;;;;;50.43;13.10;;;;;;;;;;5055228;28;20025;-72
2021/12/07 09:35:10;;;;;;;30.10;12.13;;;;;;;;;;5055190;28;20424;-74
2021/12/07 09:37:37;;;;;;;34.17;12.10;;;;;;;;;;5054966;28;20017;-72
2021/12/07 09:40:05;;;;;;;38.50;11.33;;;;;;;;;;5054919;28;20025;-72
2021/12/07 09:42:31;;;;;;;25.50;10.57;;;;;;;;;;5054873;28;20550;-72
2021/12/07 09:44:57;;;;;;;30.80;10.77;;;;;;;;;;5055151;28;20017;-72
2021/12/07 09:47:23;;;;;;;34.17;12.20;;;;;;;;;;5055004;28;20051;-72
2021/12/07 09:49:49;;;;;;;31.23;12.77;;;;;;;;;;5053615;28;20025;-72
2021/12/07 09:52:15;;;;;;;33.43;13.20;;;;;;;;;;5055013;28;20109;-72
2021/12/07 09:54:41;;;;;;;25.43;10.73;;;;;;;;;;5055002;28;20017;-72
2021/12/07 09:57:07;;;;;;;23.30;10.10;;;;;;;;;;5054669;28;20029;-72
2021/12/07 09:59:33;;;;;;;9.90;5.67;;;;;;;;;;5051990;28;20040;-72
2021/12/07 10:02:00;;;;;;;14.57;5.93;;;;;;;;;;5051726;28;20056;-72
2021/12/07 10:04:27;;;;;;;9.03;5.20;;;;;;;;;;5051837;28;20056;-72
2021/12/07 10:06:54;;;;;;;7.50;4.40;;;;;;;;;;5053877;28;20048;-72
2021/12/07 10:09:21;;;;;;;7.97;4.10;;;;;;;;;;5052411;28;20445;-71
2021/12/07 10:11:50;;;;;;;7.90;4.43;;;;;;;;;;5051686;28;20465;-73
2021/12/07 10:14:17;;;;;;;9.17;4.70;;;;;;;;;;5053015;28;20485;-72
2021/12/07 10:16:48;;;;;;;15.17;5.40;;;;;;;;;;5053668;28;20025;-72
2021/12/07 10:19:26;;;;;;;12.80;4.93;;;;;;;;;;5053392;28;20091;-72
2021/12/07 10:21:59;;;;;;;11.57;5.50;;;;;;;;;;5054311;28;20025;-72
2021/12/07 10:24:27;;;;;;;;;;;;;;;;;;5054589;28;20159;-72
2021/12/07 10:26:53;;;;;;;13.57;4.97;;;;;;;;;;5054499;28;20323;-72
2021/12/07 10:29:21;;;;;;;10.47;4.47;;;;;;;;;;5054503;28;20089;-72
2021/12/07 10:31:52;;;;;;;11.93;4.93;;;;;;;;;;5054224;28;20036;-71
2021/12/07 10:34:23;;;;;;;9.93;5.00;;;;;;;;;;5054406;28;20477;-72
2021/12/07 10:36:49;;;;;;;7.63;3.83;;;;;;;;;;5054180;28;20528;-72
2021/12/07 10:39:26;;;;;;;8.73;3.57;;;;;;;;;;5054221;28;20051;-71
2021/12/07 10:41:54;;;;;;;10.00;4.07;;;;;;;;;;5054074;28;20021;-71
2021/12/07 10:44:21;;;;;;;8.70;4.27;;;;;;;;;;5053932;28;20113;-71
2021/12/07 10:46:52;;;;;;;7.87;3.47;;;;;;;;;;5053622;28;20053;-71
2021/12/07 10:49:18;;;;;;;6.43;3.50;;;;;;;;;;5052816;28;20489;-72
2021/12/07 10:51:57;;;;;;;6.67;3.53;;;;;;;;;;5053917;28;20025;-72
2021/12/07 10:54:23;;;;;;;6.77;3.57;;;;;;;;;;5053786;28;20055;-71
2021/12/07 10:56:50;;;;;;;11.13;4.00;;;;;;;;;;5053657;28;20025;-73
2021/12/07 10:59:16;;;;;;;7.50;3.97;;;;;;;;;;5053841;28;20409;-71
2021/12/07 11:01:44;;;;;;;7.20;4.27;;;;;;;;;;5053238;28;20401;-71
2021/12/07 11:04:26;;;;;;;10.50;5.47;;;;;;;;;;5053420;28;20120;-72
2021/12/07 11:07:11;;;;;;;6.57;3.80;;;;;;;;;;5053752;28;20031;-72
2021/12/07 11:09:44;;;;;;;6.40;3.23;;;;;;;;;;5053371;28;20029;-72
2021/12/07 11:12:10;;;;;;;;;;;;;;;;;;5052356;28;20068;-73
2021/12/07 11:14:49;;;;;;;7.37;2.83;;;;;;;;;;5050487;28;20371;-73
2021/12/07 11:17:16;;;;;;;8.03;2.80;;;;;;;;;;5050384;28;20047;-72
2021/12/07 11:19:42;;;;;;;5.30;2.70;;;;;;;;;;5052047;28;20025;-73
2021/12/07 11:22:12;;;;;;;6.13;3.00;;;;;;;;;;5052899;28;20021;-73
2021/12/07 11:24:39;;;;;;;7.23;3.23;;;;;;;;;;5051713;28;20021;-73
2021/12/07 11:30:14;;;;;;;5.90;2.87;;;;;;;;;;5051441;28;20114;-72
2021/12/07 11:32:51;;;;;;;5.20;3.10;;;;;;;;;;5050261;28;20112;-74
2021/12/07 11:35:20;;;;;;;7.43;3.67;;;;;;;;;;5051829;28;20024;-74
2021/12/07 11:37:46;;;;;;;10.20;3.93;;;;;;;;;;5053053;28;20025;-75
2021/12/07 11:40:14;;;;;;;8.47;4.57;;;;;;;;;;5053071;28;20473;-79
2021/12/07 11:42:42;;;;;;;8.57;4.30;;;;;;;;;;5052913;28;20083;-79
2021/12/07 11:45:08;;;;;;;7.63;3.93;;;;;;;;;;5040247;28;20386;-77
2021/12/07 11:47:38;;;;;;;7.97;4.10;;;;;;;;;;5032524;28;20030;-83
2021/12/07 11:50:19;;;;;;;8.60;3.73;;;;;;;;;;5032264;28;20026;-74
2021/12/07 11:52:47;;;;;;;10.60;6.83;;;;;;;;;;5029869;28;20083;-78
2021/12/07 11:55:14;;;;;;;10.77;4.43;;;;;;;;;;5030094;28;20112;-75
2021/12/07 11:57:40;;;;;;;9.20;4.47;;;;;;;;;;5028836;28;20390;-75
2021/12/07 12:00:07;;;;;;;10.77;4.10;;;;;;;;;;5031366;28;20381;-75
2021/12/07 12:02:33;;;;;;;6.27;3.60;;;;;;;;;;5031854;28;20073;-74
2021/12/07 12:04:59;;;;;;;11.63;4.10;;;;;;;;;;5032452;28;20030;-74
2021/12/07 12:07:26;;;;;;;6.17;2.80;;;;;;;;;;5032662;28;20052;-79
2021/12/07 12:09:53;;;;;;;9.23;2.60;;;;;;;;;;5032476;28;20112;-79
2021/12/07 12:12:20;;;;;;;5.00;2.67;;;;;;;;;;5032548;28;20022;-76
2021/12/07 12:15:04;;;;;;;6.33;3.00;;;;;;;;;;5032509;28;20104;-77
2021/12/07 12:17:48;;;;;;;7.60;3.27;;;;;;;;;;5032608;28;20025;-74
2021/12/07 12:20:44;;;;;;;8.23;2.97;;;;;;;;;;5029835;28;20508;-75
2021/12/07 12:23:10;;;;;;;4.00;2.43;;;;;;;;;;4978001;28;20055;-74
2021/12/07 12:25:36;;;;;;;5.07;2.20;;;;;;;;;;5034717;28;20032;-74
2021/12/07 12:28:03;;;;;;;4.13;2.70;;;;;;;;;;5032957;28;20389;-75
2021/12/07 12:30:34;;;;;;;4.70;1.97;;;;;;;;;;5035433;28;20458;-74
2021/12/07 12:33:06;;;;;;;4.83;2.00;;;;;;;;;;5036294;28;20022;-74
2021/12/07 12:35:38;;;;;;;4.30;2.13;;;;;;;;;;5035984;28;20029;-75
2021/12/07 12:38:14;;;;;;;4.07;2.22;;;;;;;;;;5036493;28;20014;-74
2021/12/07 12:40:40;;;;;;;6.67;2.23;;;;;;;;;;5036180;28;20040;-74
2021/12/07 12:43:06;;;;;;;4.50;1.83;;;;;;;;;;5036016;28;20037;-74
2021/12/07 12:45:37;;;;;;;5.37;2.10;;;;;;;;;;5035874;28;20499;-76
2021/12/07 12:48:03;;;;;;;2.83;2.00;;;;;;;;;;5035835;28;20025;-74
2021/12/07 12:50:46;;;;;;;5.63;1.90;;;;;;;;;;5033996;28;20370;-74
2021/12/07 12:53:18;;;;;;;2.35;1.42;;;;;;;;;;5030294;28;20033;-73
2021/12/07 12:55:46;;;;;;;3.05;1.60;;;;;;;;;;5031376;28;20032;-72
2021/12/07 12:58:18;;;;;;;6.20;1.47;;;;;;;;;;5033147;28;20405;-72
2021/12/07 13:01:03;;;;;;;3.03;1.40;;;;;;;;;;5033695;28;20017;-72
2021/12/07 13:03:44;;;;;;;5.00;2.20;;;;;;;;;;5034786;28;20091;-74
2021/12/07 13:06:14;;;;;;;2.80;1.50;;;;;;;;;;5034717;28;20038;-73
2021/12/07 13:08:59;;;;;;;3.93;1.70;;;;;;;;;;5034466;28;20029;-73
2021/12/07 13:11:31;;;;;;;3.70;1.70;;;;;;;;;;5035271;28;20039;-73
2021/12/07 13:13:57;;;;;;;3.27;1.80;;;;;;;;;;5034680;28;20029;-73
2021/12/07 13:16:23;;;;;;;3.17;1.57;;;;;;;;;;5035200;28;20417;-72
2021/12/07 13:18:59;;;;;;;3.30;1.63;;;;;;;;;;5035374;28;20466;-73
2021/12/07 13:21:29;;;;;;;4.47;1.53;;;;;;;;;;5035148;28;20470;-73
2021/12/07 13:23:59;;;;;;;4.20;1.70;;;;;;;;;;5035101;28;20124;-73
2021/12/07 13:26:25;;;;;;;9.07;1.90;;;;;;;;;;5035144;28;20037;-72
2021/12/07 13:29:02;;;;;;;5.17;2.10;;;;;;;;;;5033862;28;20077;-74
2021/12/07 13:31:35;;;;;;;4.93;2.47;;;;;;;;;;5034784;28;20088;-72
2021/12/07 13:34:02;;;;;;;4.83;2.30;;;;;;;;;;5034377;28;20029;-74
2021/12/07 13:36:28;;;;;;;7.53;2.17;;;;;;;;;;5032373;28;20021;-74
2021/12/07 13:38:54;;;;;;;6.07;2.17;;;;;;;;;;5031870;28;20367;-74
2021/12/07 13:41:21;;;;;;;3.90;1.83;;;;;;;;;;5031992;28;20033;-79
2021/12/07 13:43:51;;;;;;;11.47;1.80;;;;;;;;;;5033211;28;20477;-79
2021/12/07 13:46:17;;;;;;;4.30;2.10;;;;;;;;;;5033703;28;20025;-80
2021/12/07 13:48:44;;;;;;;3.97;1.80;;;;;;;;;;5034987;28;20492;-74
2021/12/07 13:51:11;;;;;;;4.77;1.70;;;;;;;;;;5034763;28;20033;-77
2021/12/07 13:53:38;;;;;;;4.70;1.80;;;;;;;;;;5034906;28;20021;-80
2021/12/07 13:56:04;;;;;;;2.93;1.63;;;;;;;;;;5034678;28;20106;-75
2021/12/07 13:58:44;;;;;;;3.50;1.90;;;;;;;;;;5032990;28;20083;-76
2021/12/07 14:01:10;;;;;;;4.47;2.00;;;;;;;;;;5033916;28;20045;-74
2021/12/07 14:03:42;;;;;;;3.30;1.70;;;;;;;;;;5033192;28;20044;-76
2021/12/07 14:06:08;;;;;;;5.97;2.00;;;;;;;;;;5034366;28;20104;-73
2021/12/07 14:08:34;;;;;;;6.27;1.77;;;;;;;;;;5034428;28;20061;-74
2021/12/07 14:11:00;;;;;;;3.63;1.70;;;;;;;;;;5032912;28;20075;-74
2021/12/07 14:13:26;;;;;;;3.43;1.80;;;;;;;;;;5034416;28;20068;-74
2021/12/07 14:15:52;;;;;;;2.80;1.70;;;;;;;;;;5034239;28;20478;-75
2021/12/07 14:18:22;;;;;;;5.57;1.47;;;;;;;;;;5034529;28;20492;-73
2021/12/07 14:20:48;;;;;;;3.50;1.57;;;;;;;;;;5034598;28;20025;-85
2021/12/07 14:23:25;;;;;;;6.97;1.50;;;;;;;;;;5033832;28;20091;-74
2021/12/07 14:26:00;;;;;;;4.13;1.70;;;;;;;;;;5034230;28;20037;-74
2021/12/07 14:28:46;;;;;;;3.40;1.67;;;;;;;;;;5034303;28;20025;-75
2021/12/07 14:31:14;;;;;;;3.47;1.60;;;;;;;;;;5023660;28;20065;-75
2021/12/07 14:33:48;;;;;;;4.07;1.97;;;;;;;;;;5034077;28;20112;-75
2021/12/07 14:36:16;;;;;;;4.03;1.73;;;;;;;;;;5033359;28;20025;-75
2021/12/07 14:38:42;;;;;;;5.13;2.30;;;;;;;;;;5034166;28;20048;-75
2021/12/07 14:41:13;;;;;;;3.80;1.80;;;;;;;;;;5033036;28;20025;-74
2021/12/07 14:43:41;;;;;;;4.07;1.80;;;;;;;;;;5033954;28;20092;-74
2021/12/07 14:46:08;;;;;;;4.03;1.80;;;;;;;;;;5033438;28;20105;-75
2021/12/07 14:48:34;;;;;;;5.53;1.67;;;;;;;;;;5034389;28;20402;-75
2021/12/07 14:51:17;;;;;;;3.33;1.80;;;;;;;;;;5033968;28;20028;-75
2021/12/07 14:53:45;;;;;;;4.65;1.80;;;;;;;;;;5032611;28;20091;-76
2021/12/07 14:56:12;;;;;;;3.93;1.90;;;;;;;;;;5034082;28;20029;-75
2021/12/07 14:58:39;;;;;;;7.03;1.67;;;;;;;;;;5034304;28;20584;-75
2021/12/07 15:01:07;;;;;;;11.73;2.20;;;;;;;;;;5033855;28;20089;-75
2021/12/07 15:03:43;;;;;;;5.50;2.63;;;;;;;;;;5033625;28;20033;-75
2021/12/07 15:06:10;;;;;;;10.80;3.07;;;;;;;;;;5033993;28;20033;-74
2021/12/07 15:08:37;;;;;;;6.33;3.10;;;;;;;;;;5033875;28;20057;-75
2021/12/07 15:11:04;;;;;;;7.53;3.37;;;;;;;;;;5032467;28;20057;-75
2021/12/07 15:13:32;;;;;;;10.97;3.60;;;;;;;;;;5031484;28;20053;-74
2021/12/07 15:15:58;;;;;;;8.00;4.10;;;;;;;;;;5032943;28;20026;-75
2021/12/07 15:18:38;;;;;;;10.33;3.83;;;;;;;;;;5032535;28;20482;-74
2021/12/07 15:21:04;;;;;;;8.50;3.67;;;;;;;;;;5031928;28;20029;-75
2021/12/07 15:23:31;;;;;;;9.87;3.73;;;;;;;;;;5032133;28;20041;-77
2021/12/07 15:25:58;;;;;;;9.40;4.73;;;;;;;;;;5032904;28;20041;-75
2021/12/07 15:28:24;;;;;;;8.87;4.13;;;;;;;;;;5033326;28;20131;-75
2021/12/07 15:30:51;;;;;;;9.83;4.57;;;;;;;;;;5032592;28;20021;-75
2021/12/07 15:33:18;;;;;;;8.10;4.07;;;;;;;;;;5031348;28;20038;-76
2021/12/07 15:35:44;;;;;;;7.00;3.97;;;;;;;;;;5031937;28;20026;-75
2021/12/07 15:38:15;;;;;;;9.77;4.77;;;;;;;;;;5033382;28;20060;-74
2021/12/07 15:40:42;;;;;;;12.13;5.27;;;;;;;;;;5032839;28;20021;-74
2021/12/07 15:43:08;;;;;;;8.40;4.83;;;;;;;;;;5033002;28;20033;-74
2021/12/07 15:45:34;;;;;;;11.77;5.70;;;;;;;;;;5033241;28;20367;-74
2021/12/07 15:48:00;;;;;;;13.13;6.13;;;;;;;;;;5033190;28;20025;-75
2021/12/07 15:50:29;;;;;;;13.83;6.27;;;;;;;;;;5032724;28;20021;-75
2021/12/07 15:53:02;;;;;;;16.23;9.03;;;;;;;;;;5033024;28;20049;-74
2021/12/07 15:55:30;;;;;;;15.23;6.77;;;;;;;;;;5032963;28;20022;-74
2021/12/07 15:58:06;;;;;;;14.50;7.13;;;;;;;;;;5032046;28;20018;-75
2021/12/07 16:00:36;;;;;;;23.33;10.87;;;;;;;;;;5032494;28;20028;-74
2021/12/07 16:03:04;;;;;;;19.90;11.50;;;;;;;;;;5032717;28;20054;-74
2021/12/07 16:05:37;;;;;;;16.73;10.77;;;;;;;;;;5047885;28;20026;-74
2021/12/07 16:08:08;;;;;;;13.10;8.97;;;;;;;;;;5032856;28;20022;-76
2021/12/07 16:10:35;;;;;;;14.43;8.27;;;;;;;;;;5032552;28;20478;-75
2021/12/07 16:13:15;;;;;;;19.90;8.60;;;;;;;;;;5032811;28;20030;-75
2021/12/07 16:15:42;;;;;;;21.80;8.27;;;;;;;;;;5032470;28;20155;-75
2021/12/07 16:18:09;;;;;;;19.03;9.20;;;;;;;;;;5031758;28;20017;-75
2021/12/07 16:20:35;;;;;;;18.50;8.80;;;;;;;;;;5029122;28;20083;-78
2021/12/07 16:23:02;;;;;;;17.27;8.67;;;;;;;;;;5028974;28;20053;-73
2021/12/07 16:25:28;;;;;;;13.97;9.13;;;;;;;;;;5030500;28;20478;-73